Time;durP1;ratioP1;P1;durP2;ratioP2;P2;SDS_P1;SDS_P2;PMS_P1;PMS_P2;Temp;Humidity;BMP_temperature;BMP_pressure;BME280_temperature;BME280_humidity;BME280_pressure;Samples;Min_cycle;Max_cycle;Signal;HPM_P1;HPM_P2
2023/08/25 00:02:23;;;;;;;5.00;2.88;;;;;;;;;;8270485;28;20038;-57
2023/08/25 00:06:23;;;;;;;5.05;2.92;;;;;;;;;;8269835;28;20026;-57
2023/08/25 00:10:23;;;;;;;3.30;3.00;;;;;;;;;;8269915;28;20104;-57
2023/08/25 00:14:23;;;;;;;3.78;2.83;;;;;;;;;;8271062;28;20028;-57
2023/08/25 00:18:24;;;;;;;6.78;2.90;;;;;;;;;;8268685;28;20033;-57
2023/08/25 00:22:24;;;;;;;7.30;3.03;;;;;;;;;;8270101;28;20516;-58
2023/08/25 00:26:24;;;;;;;5.85;2.70;;;;;;;;;;8265376;28;20025;-57
2023/08/25 00:30:25;;;;;;;3.83;2.60;;;;;;;;;;8270455;28;20043;-58
2023/08/25 00:34:25;;;;;;;4.75;2.80;;;;;;;;;;8269374;28;20022;-57
2023/08/25 00:38:28;;;;;;;10.88;3.28;;;;;;;;;;8270794;28;20026;-58
2023/08/25 00:42:28;;;;;;;5.40;3.33;;;;;;;;;;8267351;28;20026;-60
2023/08/25 00:46:29;;;;;;;6.05;2.67;;;;;;;;;;8267019;28;20961;-58
2023/08/25 00:50:29;;;;;;;5.15;2.70;;;;;;;;;;8271334;28;20135;-58
2023/08/25 00:54:30;;;;;;;3.58;2.38;;;;;;;;;;8268485;28;20022;-58
2023/08/25 00:58:30;;;;;;;4.82;2.80;;;;;;;;;;8273592;28;20032;-57
2023/08/25 01:02:31;;;;;;;3.25;2.60;;;;;;;;;;8268773;28;20135;-58
2023/08/25 01:06:31;;;;;;;3.72;3.28;;;;;;;;;;8267703;28;20356;-59
2023/08/25 01:10:46;;;;;;;3.22;2.60;;;;;;;;;;8270607;28;20083;-57
2023/08/25 01:14:54;;;;;;;4.70;2.78;;;;;;;;;;8270823;28;20079;-57
2023/08/25 01:18:56;;;;;;;6.25;3.20;;;;;;;;;;8267997;28;20057;-57
2023/08/25 01:22:56;;;;;;;3.20;2.90;;;;;;;;;;8268496;28;20418;-58
2023/08/25 01:26:56;;;;;;;8.90;3.53;;;;;;;;;;8267786;28;20076;-58
2023/08/25 01:30:59;;;;;;;5.90;4.03;;;;;;;;;;8268210;28;20041;-58
2023/08/25 01:34:59;;;;;;;5.13;3.85;;;;;;;;;;8268464;28;20034;-58
2023/08/25 01:39:16;;;;;;;5.90;4.20;;;;;;;;;;8268176;28;20021;-57
2023/08/25 01:43:18;;;;;;;4.15;3.00;;;;;;;;;;8263855;28;20026;-59
2023/08/25 01:47:21;;;;;;;5.57;3.90;;;;;;;;;;8264817;28;20357;-58
2023/08/25 01:51:21;;;;;;;7.95;3.25;;;;;;;;;;8265856;28;20033;-58
2023/08/25 01:55:21;;;;;;;4.03;3.57;;;;;;;;;;8264836;28;20123;-58
2023/08/25 01:59:22;;;;;;;5.20;3.55;;;;;;;;;;8268872;28;20312;-57
2023/08/25 02:03:22;;;;;;;5.18;3.30;;;;;;;;;;8265703;28;20149;-57
2023/08/25 02:07:23;;;;;;;3.85;3.42;;;;;;;;;;8269834;28;20022;-57
2023/08/25 02:11:23;;;;;;;5.47;3.45;;;;;;;;;;8266243;28;20036;-58
2023/08/25 02:15:23;;;;;;;4.18;2.85;;;;;;;;;;8268721;28;20079;-58
2023/08/25 02:19:23;;;;;;;4.82;3.60;;;;;;;;;;8266765;28;20021;-57
2023/08/25 02:23:24;;;;;;;7.30;3.53;;;;;;;;;;8273093;28;20575;-58
2023/08/25 02:27:24;;;;;;;4.43;3.07;;;;;;;;;;8280120;28;20022;-57
2023/08/25 02:31:24;;;;;;;4.50;3.25;;;;;;;;;;8277190;28;20280;-58
2023/08/25 02:35:24;;;;;;;5.88;2.90;;;;;;;;;;8277380;28;20116;-58
2023/08/25 02:39:24;;;;;;;2.85;2.40;;;;;;;;;;8279621;28;20028;-57
2023/08/25 02:43:25;;;;;;;5.70;2.75;;;;;;;;;;8277064;28;20075;-58
2023/08/25 02:47:26;;;;;;;3.20;2.88;;;;;;;;;;8275944;28;20034;-57
2023/08/25 02:51:26;;;;;;;4.20;2.97;;;;;;;;;;8282204;28;20018;-57
2023/08/25 02:55:26;;;;;;;3.65;2.70;;;;;;;;;;8278724;28;20034;-58
2023/08/25 02:59:26;;;;;;;5.10;2.75;;;;;;;;;;8276206;28;20449;-58
2023/08/25 03:03:28;;;;;;;2.60;2.13;;;;;;;;;;8277421;28;20501;-57
2023/08/25 03:07:29;;;;;;;3.25;2.40;;;;;;;;;;8278093;28;20014;-58
2023/08/25 03:11:29;;;;;;;7.28;2.55;;;;;;;;;;8279670;28;20025;-57
2023/08/25 03:15:29;;;;;;;3.33;2.67;;;;;;;;;;8276892;28;20048;-57
2023/08/25 03:19:30;;;;;;;3.00;2.80;;;;;;;;;;8277995;28;20207;-57
2023/08/25 03:23:30;;;;;;;2.97;2.57;;;;;;;;;;8278483;28;20033;-58
2023/08/25 03:27:34;;;;;;;5.00;3.37;;;;;;;;;;8276952;28;20029;-57
2023/08/25 03:31:34;;;;;;;9.13;3.75;;;;;;;;;;8277898;28;20061;-57
2023/08/25 03:35:35;;;;;;;5.80;4.03;;;;;;;;;;8271416;28;20017;-58
2023/08/25 03:39:35;;;;;;;7.05;4.97;;;;;;;;;;8272580;28;20800;-58
2023/08/25 03:43:36;;;;;;;9.40;4.50;;;;;;;;;;8273921;28;20036;-59
2023/08/25 03:47:37;;;;;;;8.18;4.72;;;;;;;;;;8272323;28;20030;-58
2023/08/25 03:51:37;;;;;;;26.45;5.88;;;;;;;;;;8272310;28;20029;-57
2023/08/25 03:55:37;;;;;;;380.50;14.43;;;;;;;;;;8269930;28;20030;-58
2023/08/25 03:59:37;;;;;;;160.70;9.60;;;;;;;;;;8272470;28;20341;-58
2023/08/25 04:03:38;;;;;;;6.22;4.40;;;;;;;;;;8267888;28;20053;-58
2023/08/25 04:07:38;;;;;;;5.30;4.88;;;;;;;;;;8273005;28;20059;-58
2023/08/25 04:11:38;;;;;;;13.88;4.88;;;;;;;;;;8272529;28;20041;-58
2023/08/25 04:15:38;;;;;;;5.25;4.75;;;;;;;;;;8268692;28;20054;-58
2023/08/25 04:19:39;;;;;;;4.88;4.40;;;;;;;;;;8273417;28;20025;-57
2023/08/25 04:23:39;;;;;;;5.43;4.90;;;;;;;;;;8273080;28;20356;-57
2023/08/25 04:27:39;;;;;;;7.63;4.80;;;;;;;;;;8270882;28;20084;-59
2023/08/25 04:31:39;;;;;;;6.00;4.57;;;;;;;;;;8269701;28;20046;-57
2023/08/25 04:35:40;;;;;;;6.35;4.30;;;;;;;;;;8270045;28;20025;-57
2023/08/25 04:39:40;;;;;;;4.65;3.88;;;;;;;;;;8272836;28;20028;-58
2023/08/25 04:43:40;;;;;;;7.22;4.32;;;;;;;;;;8273297;28;20040;-58
2023/08/25 04:47:41;;;;;;;5.73;3.80;;;;;;;;;;8267734;28;20026;-58
2023/08/25 04:51:41;;;;;;;4.38;3.58;;;;;;;;;;8271564;28;20025;-58
2023/08/25 04:55:41;;;;;;;7.18;3.67;;;;;;;;;;8269870;28;20030;-58
2023/08/25 04:59:41;;;;;;;4.50;3.78;;;;;;;;;;8269636;28;20103;-58
2023/08/25 05:03:44;;;;;;;4.43;3.90;;;;;;;;;;8269605;28;20047;-58
2023/08/25 05:07:45;;;;;;;6.20;3.90;;;;;;;;;;8271186;28;20062;-57
2023/08/25 05:11:45;;;;;;;4.93;3.58;;;;;;;;;;8269305;28;20109;-57
2023/08/25 05:15:45;;;;;;;3.70;3.40;;;;;;;;;;8268722;28;20041;-58
2023/08/25 05:19:46;;;;;;;4.18;2.40;;;;;;;;;;8269479;28;20144;-57
2023/08/25 05:23:46;;;;;;;3.38;2.80;;;;;;;;;;8271394;28;20037;-57
2023/08/25 05:27:47;;;;;;;6.57;2.58;;;;;;;;;;8270714;28;20033;-57
2023/08/25 05:31:47;;;;;;;2.47;2.28;;;;;;;;;;8268059;28;20064;-57
2023/08/25 05:35:47;;;;;;;4.88;2.72;;;;;;;;;;8268792;28;20033;-57
2023/08/25 05:39:48;;;;;;;3.97;2.50;;;;;;;;;;8266816;28;20068;-57
2023/08/25 05:43:48;;;;;;;5.57;2.92;;;;;;;;;;8269169;28;20029;-57
2023/08/25 05:47:49;;;;;;;7.90;2.85;;;;;;;;;;8269439;28;20135;-57
2023/08/25 05:51:49;;;;;;;7.25;3.20;;;;;;;;;;8268055;28;20029;-56
2023/08/25 05:55:50;;;;;;;2.38;2.17;;;;;;;;;;8262620;28;20033;-57
2023/08/25 05:59:50;;;;;;;4.65;2.67;;;;;;;;;;8267919;28;20414;-57
2023/08/25 06:03:50;;;;;;;3.28;2.28;;;;;;;;;;8267597;28;20048;-57
2023/08/25 06:07:50;;;;;;;5.77;2.37;;;;;;;;;;8267976;28;20030;-57
2023/08/25 06:11:51;;;;;;;3.67;2.20;;;;;;;;;;8268804;28;20288;-57
2023/08/25 06:15:52;;;;;;;3.78;2.10;;;;;;;;;;8265106;28;20055;-58
2023/08/25 06:19:52;;;;;;;2.88;2.00;;;;;;;;;;8263564;28;20025;-58
2023/08/25 06:23:52;;;;;;;3.75;2.00;;;;;;;;;;8264791;28;20394;-58
2023/08/25 06:27:53;;;;;;;4.68;1.90;;;;;;;;;;8266748;28;20080;-58
2023/08/25 06:31:53;;;;;;;3.63;2.10;;;;;;;;;;8267661;28;20067;-58
2023/08/25 06:35:53;;;;;;;2.67;1.98;;;;;;;;;;8257337;28;20057;-58
2023/08/25 06:39:53;;;;;;;3.33;1.90;;;;;;;;;;8261128;28;20113;-58
2023/08/25 06:43:56;;;;;;;2.83;1.85;;;;;;;;;;8268812;28;20045;-58
2023/08/25 06:47:57;;;;;;;4.10;1.90;;;;;;;;;;8259126;28;20034;-58
2023/08/25 06:51:57;;;;;;;3.88;1.90;;;;;;;;;;8257067;28;20072;-59
2023/08/25 06:55:57;;;;;;;2.25;1.83;;;;;;;;;;8257092;28;20065;-58
2023/08/25 06:59:58;;;;;;;3.42;1.77;;;;;;;;;;8255593;28;20022;-58
2023/08/25 07:03:59;;;;;;;3.53;2.03;;;;;;;;;;8258073;28;20069;-58
2023/08/25 07:07:59;;;;;;;4.97;1.95;;;;;;;;;;8255316;28;20094;-58
2023/08/25 07:11:59;;;;;;;3.15;1.67;;;;;;;;;;8263540;28;20030;-58
2023/08/25 07:15:59;;;;;;;3.55;1.92;;;;;;;;;;8266158;28;20056;-58
2023/08/25 07:20:00;;;;;;;1.85;1.70;;;;;;;;;;8263852;28;20065;-58
2023/08/25 07:24:00;;;;;;;5.90;2.17;;;;;;;;;;8265714;28;20510;-58
2023/08/25 07:28:00;;;;;;;2.95;2.10;;;;;;;;;;8267671;28;20049;-59
2023/08/25 07:32:00;;;;;;;4.87;2.27;;;;;;;;;;8263597;28;20049;-58
2023/08/25 07:36:02;;;;;;;3.67;2.00;;;;;;;;;;8266827;28;20315;-58
2023/08/25 07:40:05;;;;;;;5.47;2.30;;;;;;;;;;8264887;28;20047;-58
2023/08/25 07:44:07;;;;;;;4.20;2.05;;;;;;;;;;8264532;28;20029;-58
2023/08/25 07:48:08;;;;;;;3.72;1.98;;;;;;;;;;8265916;28;20150;-59
2023/08/25 07:52:08;;;;;;;2.10;1.85;;;;;;;;;;8265346;28;20411;-59
2023/08/25 07:56:08;;;;;;;4.22;1.92;;;;;;;;;;8263923;28;20029;-59
2023/08/25 08:00:15;;;;;;;2.60;1.80;;;;;;;;;;8263994;28;20075;-61
2023/08/25 08:04:16;;;;;;;2.88;1.65;;;;;;;;;;8264713;28;20576;-61
2023/08/25 08:08:16;;;;;;;3.67;1.70;;;;;;;;;;8266017;28;20022;-59
2023/08/25 08:12:16;;;;;;;4.83;2.60;;;;;;;;;;8265719;28;20025;-59
2023/08/25 08:16:17;;;;;;;3.55;1.75;;;;;;;;;;8260479;28;20087;-59
2023/08/25 08:20:17;;;;;;;3.27;1.70;;;;;;;;;;8264492;28;20034;-59
2023/08/25 08:24:17;;;;;;;3.67;1.65;;;;;;;;;;8262785;28;20502;-60
2023/08/25 08:28:17;;;;;;;3.57;1.63;;;;;;;;;;8264667;28;20267;-59
2023/08/25 08:32:18;;;;;;;3.95;1.67;;;;;;;;;;8262684;28;20209;-59
2023/08/25 08:36:19;;;;;;;4.03;1.60;;;;;;;;;;8262774;28;20226;-59
2023/08/25 08:40:20;;;;;;;1.60;1.50;;;;;;;;;;8263496;28;20025;-59
2023/08/25 08:44:21;;;;;;;3.10;1.67;;;;;;;;;;8264538;28;20032;-59
2023/08/25 08:48:21;;;;;;;5.60;2.00;;;;;;;;;;8263430;28;20048;-60
2023/08/25 08:52:22;;;;;;;2.67;1.45;;;;;;;;;;8265771;28;20850;-60
2023/08/25 08:56:22;;;;;;;2.90;1.40;;;;;;;;;;8261921;28;20437;-59
2023/08/25 09:00:23;;;;;;;2.33;1.70;;;;;;;;;;8261639;28;20351;-59
2023/08/25 09:04:23;;;;;;;1.80;1.35;;;;;;;;;;8260171;28;20517;-59
2023/08/25 09:08:24;;;;;;;3.03;1.67;;;;;;;;;;8264627;28;20900;-59
2023/08/25 09:12:24;;;;;;;3.70;1.77;;;;;;;;;;8261894;28;20025;-61
2023/08/25 09:16:25;;;;;;;1.58;1.17;;;;;;;;;;8262235;28;20052;-59
2023/08/25 09:20:25;;;;;;;2.45;1.50;;;;;;;;;;8259409;28;20036;-59
2023/08/25 09:24:25;;;;;;;1.58;1.42;;;;;;;;;;8262872;28;20596;-59
2023/08/25 09:28:27;;;;;;;2.15;1.30;;;;;;;;;;8264393;28;20116;-59
2023/08/25 09:32:28;;;;;;;3.13;1.50;;;;;;;;;;8259456;28;20481;-59
2023/08/25 09:36:29;;;;;;;3.20;1.75;;;;;;;;;;8263409;28;20526;-59
2023/08/25 09:40:29;;;;;;;4.88;1.65;;;;;;;;;;8260599;28;20153;-59
2023/08/25 09:44:32;;;;;;;1.50;1.40;;;;;;;;;;8258936;28;20421;-59
2023/08/25 09:48:32;;;;;;;;;;;;;;;;;;8263075;28;20475;-59
2023/08/25 09:52:36;;;;;;;2.13;1.33;;;;;;;;;;8263655;28;19909;-59
2023/08/25 09:56:37;;;;;;;2.05;1.40;;;;;;;;;;8258883;28;20018;-59
2023/08/25 10:00:38;;;;;;;1.92;1.30;;;;;;;;;;8260916;28;20072;-59
2023/08/25 10:04:41;;;;;;;2.83;1.30;;;;;;;;;;8259677;28;20030;-59
2023/08/25 10:08:42;;;;;;;2.78;1.50;;;;;;;;;;8262399;28;20056;-59
2023/08/25 10:12:44;;;;;;;1.85;1.50;;;;;;;;;;8261401;28;20022;-60
2023/08/25 10:16:45;;;;;;;2.22;1.27;;;;;;;;;;8260595;28;20440;-60
2023/08/25 10:20:46;;;;;;;2.50;1.50;;;;;;;;;;8259543;28;20501;-59
2023/08/25 10:24:47;;;;;;;3.30;1.60;;;;;;;;;;8260792;28;20030;-59
2023/08/25 10:28:48;;;;;;;3.78;1.40;;;;;;;;;;8262024;28;20026;-59
2023/08/25 10:32:48;;;;;;;2.63;1.52;;;;;;;;;;8260721;28;20192;-59
2023/08/25 10:36:48;;;;;;;2.00;1.45;;;;;;;;;;8260852;28;20102;-59
2023/08/25 10:40:55;;;;;;;2.08;1.40;;;;;;;;;;8260718;28;20026;-59
2023/08/25 10:44:56;;;;;;;4.00;1.48;;;;;;;;;;8268047;28;20044;-59
2023/08/25 10:49:03;;;;;;;1.80;1.60;;;;;;;;;;8269042;28;20045;-59
2023/08/25 10:53:03;;;;;;;2.33;1.70;;;;;;;;;;8268207;28;20034;-59
2023/08/25 10:57:17;;;;;;;4.28;2.00;;;;;;;;;;8268603;28;20082;-59
2023/08/25 11:01:17;;;;;;;3.70;1.60;;;;;;;;;;8267142;28;20423;-59
2023/08/25 11:05:26;;;;;;;5.53;1.83;;;;;;;;;;8266076;28;20030;-60
2023/08/25 11:09:26;;;;;;;2.75;1.60;;;;;;;;;;8267883;28;20283;-59
2023/08/25 11:13:27;;;;;;;2.55;1.60;;;;;;;;;;8265964;28;20569;-59
2023/08/25 11:17:27;;;;;;;4.30;1.90;;;;;;;;;;8264226;28;20131;-59
2023/08/25 11:21:28;;;;;;;3.53;1.85;;;;;;;;;;8266704;28;20029;-59
2023/08/25 11:25:28;;;;;;;4.30;2.00;;;;;;;;;;8267711;28;20026;-59
2023/08/25 11:29:28;;;;;;;2.25;1.80;;;;;;;;;;8267012;28;20374;-59
2023/08/25 11:33:30;;;;;;;3.35;2.13;;;;;;;;;;8262095;28;20100;-59
2023/08/25 11:37:30;;;;;;;2.72;1.60;;;;;;;;;;8266400;28;20025;-59
2023/08/25 11:41:32;;;;;;;6.18;2.33;;;;;;;;;;8268438;28;20030;-59
2023/08/25 11:45:32;;;;;;;4.00;1.88;;;;;;;;;;8263280;28;20127;-59
2023/08/25 11:49:33;;;;;;;3.53;2.20;;;;;;;;;;8266261;28;20473;-59
2023/08/25 11:53:33;;;;;;;2.80;2.10;;;;;;;;;;8266853;28;20525;-59
2023/08/25 11:57:34;;;;;;;6.07;1.97;;;;;;;;;;8261881;28;20358;-59
2023/08/25 12:01:37;;;;;;;3.92;1.80;;;;;;;;;;8264939;28;20809;-59
2023/08/25 12:05:37;;;;;;;5.95;2.10;;;;;;;;;;8263638;28;20483;-59
2023/08/25 12:09:38;;;;;;;5.55;2.10;;;;;;;;;;8265250;28;20022;-59
2023/08/25 12:13:42;;;;;;;2.22;2.03;;;;;;;;;;8266655;28;20022;-58
2023/08/25 12:17:46;;;;;;;3.60;1.95;;;;;;;;;;8262137;28;20600;-58
2023/08/25 12:21:50;;;;;;;4.65;2.10;;;;;;;;;;8266247;28;20244;-58
2023/08/25 12:25:51;;;;;;;4.13;2.10;;;;;;;;;;8261711;28;20155;-58
2023/08/25 12:29:51;;;;;;;2.30;2.05;;;;;;;;;;8264766;28;20563;-58
2023/08/25 12:33:51;;;;;;;2.80;2.00;;;;;;;;;;8263493;28;20064;-58
2023/08/25 12:37:51;;;;;;;6.22;2.58;;;;;;;;;;8265521;28;20932;-58
2023/08/25 12:41:51;;;;;;;4.93;2.45;;;;;;;;;;8263919;28;20803;-58
2023/08/25 12:45:51;;;;;;;4.30;2.28;;;;;;;;;;8262204;28;20612;-58
2023/08/25 12:49:52;;;;;;;3.70;2.20;;;;;;;;;;8266009;28;20486;-59
2023/08/25 12:53:53;;;;;;;3.72;2.30;;;;;;;;;;8264661;28;20163;-58
2023/08/25 12:57:54;;;;;;;6.63;2.40;;;;;;;;;;8266263;28;20033;-59
2023/08/25 13:01:54;;;;;;;5.35;2.42;;;;;;;;;;8271689;28;20049;-59
2023/08/25 13:05:54;;;;;;;5.75;2.97;;;;;;;;;;8262913;28;20029;-59
2023/08/25 13:09:55;;;;;;;5.78;2.40;;;;;;;;;;8265350;28;20026;-58
2023/08/25 13:13:55;;;;;;;9.25;2.90;;;;;;;;;;8263587;28;20112;-59
2023/08/25 13:17:55;;;;;;;6.43;2.40;;;;;;;;;;8264109;28;20500;-59
2023/08/25 13:21:55;;;;;;;7.43;2.72;;;;;;;;;;8265022;28;20044;-60
2023/08/25 13:25:55;;;;;;;5.03;2.42;;;;;;;;;;8270182;28;20760;-58
2023/08/25 13:29:56;;;;;;;3.23;2.30;;;;;;;;;;8269555;28;20064;-58
2023/08/25 13:33:57;;;;;;;8.50;2.90;;;;;;;;;;8268765;28;20334;-58
2023/08/25 13:37:57;;;;;;;6.18;2.75;;;;;;;;;;8272683;28;20029;-58
2023/08/25 13:41:57;;;;;;;3.67;2.63;;;;;;;;;;8269158;28;20302;-58
2023/08/25 13:45:57;;;;;;;5.40;2.65;;;;;;;;;;8263184;28;20030;-59
2023/08/25 13:49:58;;;;;;;6.65;2.50;;;;;;;;;;8262524;28;20108;-59
2023/08/25 13:53:59;;;;;;;6.57;2.50;;;;;;;;;;8260630;28;20034;-59
2023/08/25 13:57:59;;;;;;;6.22;2.72;;;;;;;;;;8263603;28;20037;-59
2023/08/25 14:01:59;;;;;;;4.88;2.80;;;;;;;;;;8262156;28;20046;-58
2023/08/25 14:05:59;;;;;;;5.47;3.00;;;;;;;;;;8260755;28;20033;-58
2023/08/25 14:09:59;;;;;;;6.70;2.80;;;;;;;;;;8264571;28;20160;-59
2023/08/25 14:14:00;;;;;;;8.15;2.75;;;;;;;;;;8261596;28;20057;-60
2023/08/25 14:18:00;;;;;;;6.38;3.15;;;;;;;;;;8261446;28;20353;-59
2023/08/25 14:22:00;;;;;;;8.05;3.20;;;;;;;;;;8262377;28;20044;-58
2023/08/25 14:26:00;;;;;;;7.83;2.97;;;;;;;;;;8261637;28;20034;-59
2023/08/25 14:30:01;;;;;;;7.32;3.38;;;;;;;;;;8263678;28;20076;-59
2023/08/25 14:34:01;;;;;;;5.07;2.80;;;;;;;;;;8262578;28;20045;-60
2023/08/25 14:38:02;;;;;;;7.28;3.03;;;;;;;;;;8265485;28;20299;-59
2023/08/25 14:42:02;;;;;;;5.95;3.10;;;;;;;;;;8261350;28;20018;-59
2023/08/25 14:46:03;;;;;;;5.70;2.90;;;;;;;;;;8260879;28;20033;-59
2023/08/25 14:50:04;;;;;;;7.53;2.85;;;;;;;;;;8263396;28;20471;-59
2023/08/25 14:54:04;;;;;;;8.88;2.90;;;;;;;;;;8261651;28;20053;-58
2023/08/25 14:58:04;;;;;;;7.33;3.03;;;;;;;;;;8264900;28;20038;-58
2023/08/25 15:02:05;;;;;;;7.65;3.03;;;;;;;;;;8260685;28;20836;-58
2023/08/25 15:06:05;;;;;;;6.82;3.00;;;;;;;;;;8260514;28;20459;-59
2023/08/25 15:10:05;;;;;;;5.47;3.00;;;;;;;;;;8261372;28;20022;-58
2023/08/25 15:14:06;;;;;;;8.48;3.17;;;;;;;;;;8259858;28;20034;-59
2023/08/25 15:18:06;;;;;;;9.55;3.13;;;;;;;;;;8260596;28;20038;-58
2023/08/25 15:22:06;;;;;;;8.30;3.30;;;;;;;;;;8262014;28;20061;-58
2023/08/25 15:26:07;;;;;;;6.70;2.92;;;;;;;;;;8261782;28;20040;-59
2023/08/25 15:30:07;;;;;;;6.57;3.10;;;;;;;;;;8268017;28;20036;-59
2023/08/25 15:34:08;;;;;;;6.00;2.88;;;;;;;;;;8266289;28;22091;-58
2023/08/25 15:38:08;;;;;;;6.28;2.97;;;;;;;;;;8264032;28;20100;-58
2023/08/25 15:42:08;;;;;;;6.80;2.88;;;;;;;;;;8266159;28;21295;-58
2023/08/25 15:46:08;;;;;;;6.00;2.83;;;;;;;;;;8266965;28;20049;-58
2023/08/25 15:50:09;;;;;;;7.82;3.17;;;;;;;;;;8263530;28;20497;-58
2023/08/25 15:54:09;;;;;;;10.70;3.37;;;;;;;;;;8266961;28;20030;-58
2023/08/25 15:58:09;;;;;;;7.20;3.00;;;;;;;;;;8265496;28;20072;-58
2023/08/25 16:02:09;;;;;;;7.85;3.33;;;;;;;;;;8264673;28;20050;-58
2023/08/25 16:06:10;;;;;;;6.60;3.40;;;;;;;;;;8267837;28;20033;-58
2023/08/25 16:10:10;;;;;;;7.85;3.10;;;;;;;;;;8264822;28;20018;-58
2023/08/25 16:14:11;;;;;;;6.60;2.97;;;;;;;;;;8264467;28;20378;-58
2023/08/25 16:18:11;;;;;;;6.50;2.78;;;;;;;;;;8265842;28;20052;-58
2023/08/25 16:22:11;;;;;;;7.20;2.90;;;;;;;;;;8264345;28;20510;-58
2023/08/25 16:26:11;;;;;;;8.55;3.28;;;;;;;;;;8265394;28;20109;-58
2023/08/25 16:30:11;;;;;;;3.67;2.80;;;;;;;;;;8263614;28;20022;-58
2023/08/25 16:34:12;;;;;;;5.38;3.13;;;;;;;;;;8264160;28;20033;-58
2023/08/25 16:38:13;;;;;;;6.35;3.10;;;;;;;;;;8266292;28;20029;-58
2023/08/25 16:42:13;;;;;;;6.15;2.95;;;;;;;;;;8264893;28;20095;-58
2023/08/25 16:46:13;;;;;;;5.70;3.08;;;;;;;;;;8264758;28;20045;-58
2023/08/25 16:50:13;;;;;;;4.70;3.08;;;;;;;;;;8265155;28;20057;-58
2023/08/25 16:54:13;;;;;;;6.55;3.20;;;;;;;;;;8263136;28;20908;-57
2023/08/25 16:58:14;;;;;;;6.45;3.15;;;;;;;;;;8266755;28;20059;-57
2023/08/25 17:02:14;;;;;;;8.80;3.20;;;;;;;;;;8262348;28;20628;-58
2023/08/25 17:06:14;;;;;;;5.45;3.20;;;;;;;;;;8263082;28;20026;-58
2023/08/25 17:10:15;;;;;;;7.43;3.00;;;;;;;;;;8264270;28;20025;-58
2023/08/25 17:14:16;;;;;;;4.82;2.95;;;;;;;;;;8259860;28;20099;-58
2023/08/25 17:18:16;;;;;;;4.10;2.83;;;;;;;;;;8262371;28;20077;-58
2023/08/25 17:22:17;;;;;;;3.85;2.60;;;;;;;;;;8262908;28;20048;-58
2023/08/25 17:26:17;;;;;;;4.68;2.80;;;;;;;;;;8266220;28;20094;-58
2023/08/25 17:30:17;;;;;;;6.00;2.78;;;;;;;;;;8269917;28;20027;-58
2023/08/25 17:34:17;;;;;;;7.97;3.08;;;;;;;;;;8265741;28;20034;-58
2023/08/25 17:38:18;;;;;;;4.95;2.90;;;;;;;;;;8264867;28;20087;-58
2023/08/25 17:42:18;;;;;;;5.75;3.00;;;;;;;;;;8262242;28;20508;-57
2023/08/25 17:46:18;;;;;;;5.75;2.58;;;;;;;;;;8261392;28;20041;-58
2023/08/25 17:50:18;;;;;;;5.53;2.90;;;;;;;;;;8263883;28;20032;-58
2023/08/25 17:54:19;;;;;;;6.38;2.60;;;;;;;;;;8261723;28;20037;-58
2023/08/25 17:58:20;;;;;;;4.32;2.80;;;;;;;;;;8261921;28;20097;-58
2023/08/25 18:02:20;;;;;;;4.75;3.05;;;;;;;;;;8255515;28;20041;-58
2023/08/25 18:06:20;;;;;;;6.03;2.90;;;;;;;;;;8255373;28;20018;-58
2023/08/25 18:10:21;;;;;;;5.15;2.97;;;;;;;;;;8260507;28;20022;-58
2023/08/25 18:14:22;;;;;;;5.78;3.13;;;;;;;;;;8261450;28;20072;-58
2023/08/25 18:18:23;;;;;;;6.10;3.28;;;;;;;;;;8261376;28;20408;-58
2023/08/25 18:22:23;;;;;;;5.68;3.08;;;;;;;;;;8257057;28;20137;-57
2023/08/25 18:26:24;;;;;;;7.20;3.00;;;;;;;;;;8260494;28;20053;-58
2023/08/25 18:30:25;;;;;;;7.30;2.88;;;;;;;;;;8256965;28;20060;-58
2023/08/25 18:34:25;;;;;;;6.85;3.25;;;;;;;;;;8250992;28;20136;-57
2023/08/25 18:38:26;;;;;;;5.43;3.00;;;;;;;;;;8253271;28;20104;-57
2023/08/25 18:42:26;;;;;;;6.50;2.90;;;;;;;;;;8250049;28;20026;-58
2023/08/25 18:46:27;;;;;;;7.03;3.42;;;;;;;;;;8252032;28;20495;-57
2023/08/25 18:50:27;;;;;;;6.10;2.88;;;;;;;;;;8256745;28;20992;-57
2023/08/25 18:54:27;;;;;;;6.47;3.40;;;;;;;;;;8257880;28;20132;-58
2023/08/25 18:58:27;;;;;;;5.22;3.13;;;;;;;;;;8251576;28;20033;-58
2023/08/25 19:02:27;;;;;;;6.68;2.92;;;;;;;;;;8252827;28;20516;-58
2023/08/25 19:06:28;;;;;;;5.47;3.17;;;;;;;;;;8257634;28;20418;-57
2023/08/25 19:10:29;;;;;;;5.55;3.00;;;;;;;;;;8259190;28;20049;-58
2023/08/25 19:14:29;;;;;;;5.47;3.20;;;;;;;;;;8260917;28;20128;-57
2023/08/25 19:18:30;;;;;;;4.77;3.13;;;;;;;;;;8258225;28;20141;-57
2023/08/25 19:22:30;;;;;;;4.55;3.00;;;;;;;;;;8268284;28;20299;-58
2023/08/25 19:26:30;;;;;;;6.47;2.95;;;;;;;;;;8260882;28;20025;-57
2023/08/25 19:30:30;;;;;;;3.60;2.60;;;;;;;;;;8259059;28;20556;-57
2023/08/25 19:34:31;;;;;;;5.45;3.00;;;;;;;;;;8256088;28;20485;-57
2023/08/25 19:38:31;;;;;;;7.18;2.95;;;;;;;;;;8262432;28;20587;-57
2023/08/25 19:42:31;;;;;;;5.35;2.95;;;;;;;;;;8259588;28;20878;-57
2023/08/25 19:46:31;;;;;;;4.55;2.40;;;;;;;;;;8259053;28;20030;-57
2023/08/25 19:50:31;;;;;;;5.85;3.13;;;;;;;;;;8259444;28;20029;-57
2023/08/25 19:54:32;;;;;;;7.97;2.97;;;;;;;;;;8259253;28;20051;-58
2023/08/25 19:58:32;;;;;;;6.63;3.20;;;;;;;;;;8265683;28;20021;-58
2023/08/25 20:02:34;;;;;;;6.63;2.97;;;;;;;;;;8258174;28;20045;-57
2023/08/25 20:06:34;;;;;;;8.45;3.28;;;;;;;;;;8266616;28;20115;-57
2023/08/25 20:10:34;;;;;;;7.93;3.40;;;;;;;;;;8262356;28;20462;-57
2023/08/25 20:14:36;;;;;;;7.27;3.10;;;;;;;;;;8255671;28;20654;-57
2023/08/25 20:18:37;;;;;;;7.88;3.20;;;;;;;;;;8253930;28;20288;-57
2023/08/25 20:22:38;;;;;;;5.30;3.28;;;;;;;;;;8253000;28;20538;-57
2023/08/25 20:26:38;;;;;;;3.80;2.70;;;;;;;;;;8255427;28;20054;-56
2023/08/25 20:30:39;;;;;;;4.82;2.67;;;;;;;;;;8259380;28;20026;-57
2023/08/25 20:34:39;;;;;;;4.68;2.70;;;;;;;;;;8255475;28;20060;-57
2023/08/25 20:38:39;;;;;;;3.75;3.03;;;;;;;;;;8257296;28;20102;-56
2023/08/25 20:42:40;;;;;;;4.35;2.72;;;;;;;;;;8259770;28;20041;-57
2023/08/25 20:46:41;;;;;;;4.18;2.60;;;;;;;;;;8261734;28;20106;-57
2023/08/25 20:50:46;;;;;;;8.55;3.30;;;;;;;;;;8261559;28;20397;-57
2023/08/25 20:54:46;;;;;;;6.57;2.90;;;;;;;;;;8259525;28;20053;-57
2023/08/25 20:58:47;;;;;;;6.53;2.97;;;;;;;;;;8268041;28;20951;-57
2023/08/25 21:02:47;;;;;;;4.00;2.65;;;;;;;;;;8266743;28;20798;-60
2023/08/25 21:06:47;;;;;;;6.10;3.00;;;;;;;;;;8267338;28;20124;-57
2023/08/25 21:10:51;;;;;;;8.23;3.00;;;;;;;;;;8267197;28;20296;-57
2023/08/25 21:14:51;;;;;;;6.03;2.72;;;;;;;;;;8268466;28;20038;-57
2023/08/25 21:18:51;;;;;;;5.40;2.83;;;;;;;;;;8268552;28;20198;-57
2023/08/25 21:22:51;;;;;;;6.25;3.10;;;;;;;;;;8269199;28;20762;-57
2023/08/25 21:26:53;;;;;;;5.97;2.90;;;;;;;;;;8266401;28;20132;-58
2023/08/25 21:30:54;;;;;;;4.78;2.78;;;;;;;;;;8266200;28;20065;-58
2023/08/25 21:34:54;;;;;;;4.30;3.00;;;;;;;;;;8266714;28;20030;-58
2023/08/25 21:38:54;;;;;;;9.32;3.20;;;;;;;;;;8268482;28;20494;-57
2023/08/25 21:42:55;;;;;;;5.60;2.97;;;;;;;;;;8268230;28;20029;-57
2023/08/25 21:46:55;;;;;;;5.93;3.30;;;;;;;;;;8268042;28;20431;-57
2023/08/25 21:50:55;;;;;;;7.85;3.03;;;;;;;;;;8264614;28;20379;-57
2023/08/25 21:54:55;;;;;;;6.47;3.13;;;;;;;;;;8268795;28;20032;-57
2023/08/25 21:58:55;;;;;;;5.65;2.97;;;;;;;;;;8266435;28;20140;-57
2023/08/25 22:02:56;;;;;;;6.65;3.13;;;;;;;;;;8266713;28;20509;-56
2023/08/25 22:06:56;;;;;;;7.83;3.30;;;;;;;;;;8270926;28;20068;-57
2023/08/25 22:10:56;;;;;;;6.60;3.60;;;;;;;;;;8267211;28;20124;-56
2023/08/25 22:14:56;;;;;;;7.05;3.10;;;;;;;;;;8266226;28;20095;-57
2023/08/25 22:18:56;;;;;;;5.20;3.08;;;;;;;;;;8268458;28;20105;-58
2023/08/25 22:22:57;;;;;;;15.05;3.97;;;;;;;;;;8266535;28;20036;-57
2023/08/25 22:26:57;;;;;;;5.15;3.25;;;;;;;;;;8268648;28;21488;-58
2023/08/25 22:30:57;;;;;;;5.65;3.45;;;;;;;;;;8266311;28;20820;-58
2023/08/25 22:34:58;;;;;;;5.38;3.30;;;;;;;;;;8265307;28;20032;-58
2023/08/25 22:38:58;;;;;;;4.93;3.27;;;;;;;;;;8265076;28;20143;-58
2023/08/25 22:42:58;;;;;;;5.45;3.40;;;;;;;;;;8274111;28;20308;-59
2023/08/25 22:46:58;;;;;;;5.32;3.10;;;;;;;;;;8273855;28;20029;-58
2023/08/25 22:50:59;;;;;;;5.45;3.30;;;;;;;;;;8274067;28;20858;-58
2023/08/25 22:54:59;;;;;;;4.40;3.17;;;;;;;;;;8271321;28;20109;-59
2023/08/25 22:59:00;;;;;;;4.68;2.92;;;;;;;;;;8271548;28;20060;-58
2023/08/25 23:03:01;;;;;;;5.05;2.90;;;;;;;;;;8271807;28;20344;-58
2023/08/25 23:07:01;;;;;;;6.45;3.17;;;;;;;;;;8270892;28;20256;-58
2023/08/25 23:11:02;;;;;;;6.07;3.47;;;;;;;;;;8272612;28;20025;-58
2023/08/25 23:15:02;;;;;;;7.20;3.40;;;;;;;;;;8272315;28;20033;-60
2023/08/25 23:19:03;;;;;;;8.30;3.70;;;;;;;;;;8273804;28;20721;-58
2023/08/25 23:23:03;;;;;;;4.85;3.60;;;;;;;;;;8270531;28;20794;-59
2023/08/25 23:27:04;;;;;;;9.07;4.10;;;;;;;;;;8271919;28;20072;-58
2023/08/25 23:31:04;;;;;;;5.00;3.40;;;;;;;;;;8271341;28;20940;-58
2023/08/25 23:35:05;;;;;;;7.13;4.07;;;;;;;;;;8270741;28;20618;-58
2023/08/25 23:39:05;;;;;;;6.18;4.05;;;;;;;;;;8274409;28;20518;-58
2023/08/25 23:43:05;;;;;;;5.13;3.75;;;;;;;;;;8270657;28;20032;-58
2023/08/25 23:47:05;;;;;;;9.25;4.10;;;;;;;;;;8270013;28;20033;-58
2023/08/25 23:51:06;;;;;;;6.05;3.78;;;;;;;;;;8271375;28;20510;-58
2023/08/25 23:55:06;;;;;;;6.37;4.00;;;;;;;;;;8268007;28;20036;-58
2023/08/25 23:59:06;;;;;;;6.57;3.90;;;;;;;;;;8270184;28;20372;-59
